sensor_id;sensor_type;location;lat;lon;timestamp;P1;durP1;ratioP1;P2;durP2;ratioP2
26908;SDS011;14477;51.038;4.588;2023-09-07T00:00:20;2.70;;;1.80;;
26908;SDS011;14477;51.038;4.588;2023-09-07T00:02:46;2.70;;;1.80;;
26908;SDS011;14477;51.038;4.588;2023-09-07T00:05:11;2.80;;;2.00;;
26908;SDS011;14477;51.038;4.588;2023-09-07T00:07:38;2.83;;;1.88;;
26908;SDS011;14477;51.038;4.588;2023-09-07T00:10:04;3.50;;;1.83;;
26908;SDS011;14477;51.038;4.588;2023-09-07T00:12:31;2.78;;;1.88;;
26908;SDS011;14477;51.038;4.588;2023-09-07T00:14:57;3.33;;;1.88;;
26908;SDS011;14477;51.038;4.588;2023-09-07T00:17:23;3.15;;;2.20;;
26908;SDS011;14477;51.038;4.588;2023-09-07T00:19:49;2.90;;;2.00;;
26908;SDS011;14477;51.038;4.588;2023-09-07T00:22:16;3.00;;;2.03;;
26908;SDS011;14477;51.038;4.588;2023-09-07T00:24:43;3.13;;;1.98;;
26908;SDS011;14477;51.038;4.588;2023-09-07T00:27:10;3.10;;;1.80;;
26908;SDS011;14477;51.038;4.588;2023-09-07T00:29:37;2.80;;;1.90;;
26908;SDS011;14477;51.038;4.588;2023-09-07T00:32:03;3.37;;;1.90;;
26908;SDS011;14477;51.038;4.588;2023-09-07T00:34:29;2.70;;;1.85;;
26908;SDS011;14477;51.038;4.588;2023-09-07T00:36:55;2.67;;;1.95;;
26908;SDS011;14477;51.038;4.588;2023-09-07T00:39:21;3.38;;;2.03;;
26908;SDS011;14477;51.038;4.588;2023-09-07T00:41:47;3.53;;;2.00;;
26908;SDS011;14477;51.038;4.588;2023-09-07T00:44:13;3.53;;;1.90;;
26908;SDS011;14477;51.038;4.588;2023-09-07T00:46:38;3.17;;;2.10;;
26908;SDS011;14477;51.038;4.588;2023-09-07T00:49:04;2.63;;;1.90;;
26908;SDS011;14477;51.038;4.588;2023-09-07T00:51:31;2.78;;;1.98;;
26908;SDS011;14477;51.038;4.588;2023-09-07T00:53:57;3.20;;;2.00;;
26908;SDS011;14477;51.038;4.588;2023-09-07T00:56:25;3.87;;;1.90;;
26908;SDS011;14477;51.038;4.588;2023-09-07T00:58:52;2.70;;;2.10;;
26908;SDS011;14477;51.038;4.588;2023-09-07T01:01:19;3.00;;;2.00;;
26908;SDS011;14477;51.038;4.588;2023-09-07T01:03:46;2.78;;;1.88;;
26908;SDS011;14477;51.038;4.588;2023-09-07T01:06:13;4.13;;;2.27;;
26908;SDS011;14477;51.038;4.588;2023-09-07T01:08:48;3.35;;;2.30;;
26908;SDS011;14477;51.038;4.588;2023-09-07T01:11:17;3.00;;;2.00;;
26908;SDS011;14477;51.038;4.588;2023-09-07T01:13:47;2.80;;;2.10;;
26908;SDS011;14477;51.038;4.588;2023-09-07T01:16:14;2.75;;;2.00;;
26908;SDS011;14477;51.038;4.588;2023-09-07T01:18:40;3.43;;;2.07;;
26908;SDS011;14477;51.038;4.588;2023-09-07T01:21:07;2.92;;;1.95;;
26908;SDS011;14477;51.038;4.588;2023-09-07T01:23:37;3.10;;;1.90;;
26908;SDS011;14477;51.038;4.588;2023-09-07T01:26:06;3.20;;;2.00;;
26908;SDS011;14477;51.038;4.588;2023-09-07T01:28:33;4.03;;;2.10;;
26908;SDS011;14477;51.038;4.588;2023-09-07T01:31:03;3.08;;;1.90;;
26908;SDS011;14477;51.038;4.588;2023-09-07T01:33:29;2.72;;;1.98;;
26908;SDS011;14477;51.038;4.588;2023-09-07T01:35:55;3.25;;;2.05;;
26908;SDS011;14477;51.038;4.588;2023-09-07T01:38:21;3.25;;;2.13;;
26908;SDS011;14477;51.038;4.588;2023-09-07T01:40:47;3.23;;;2.10;;
26908;SDS011;14477;51.038;4.588;2023-09-07T01:43:12;3.95;;;2.20;;
26908;SDS011;14477;51.038;4.588;2023-09-07T01:45:39;2.63;;;1.90;;
26908;SDS011;14477;51.038;4.588;2023-09-07T01:48:08;2.90;;;1.90;;
26908;SDS011;14477;51.038;4.588;2023-09-07T01:50:35;2.97;;;2.00;;
26908;SDS011;14477;51.038;4.588;2023-09-07T01:53:01;3.10;;;2.17;;
26908;SDS011;14477;51.038;4.588;2023-09-07T01:55:29;3.63;;;2.07;;
26908;SDS011;14477;51.038;4.588;2023-09-07T01:57:56;3.20;;;2.05;;
26908;SDS011;14477;51.038;4.588;2023-09-07T02:00:22;3.60;;;2.20;;
26908;SDS011;14477;51.038;4.588;2023-09-07T02:02:48;3.50;;;2.13;;
26908;SDS011;14477;51.038;4.588;2023-09-07T02:05:13;3.10;;;2.30;;
26908;SDS011;14477;51.038;4.588;2023-09-07T02:07:39;3.00;;;2.22;;
26908;SDS011;14477;51.038;4.588;2023-09-07T02:10:05;3.20;;;2.20;;
26908;SDS011;14477;51.038;4.588;2023-09-07T02:12:31;3.50;;;2.28;;
26908;SDS011;14477;51.038;4.588;2023-09-07T02:15:01;4.07;;;2.10;;
26908;SDS011;14477;51.038;4.588;2023-09-07T02:17:28;4.80;;;2.40;;
26908;SDS011;14477;51.038;4.588;2023-09-07T02:19:55;3.83;;;2.08;;
26908;SDS011;14477;51.038;4.588;2023-09-07T02:22:21;3.30;;;2.22;;
26908;SDS011;14477;51.038;4.588;2023-09-07T02:24:47;3.78;;;2.38;;
26908;SDS011;14477;51.038;4.588;2023-09-07T02:27:13;3.53;;;2.30;;
26908;SDS011;14477;51.038;4.588;2023-09-07T02:29:38;3.28;;;2.33;;
26908;SDS011;14477;51.038;4.588;2023-09-07T02:32:04;4.47;;;2.07;;
26908;SDS011;14477;51.038;4.588;2023-09-07T02:34:30;3.05;;;2.30;;
26908;SDS011;14477;51.038;4.588;2023-09-07T02:36:56;2.80;;;1.98;;
26908;SDS011;14477;51.038;4.588;2023-09-07T02:39:22;3.57;;;2.23;;
26908;SDS011;14477;51.038;4.588;2023-09-07T02:41:51;3.70;;;2.00;;
26908;SDS011;14477;51.038;4.588;2023-09-07T02:44:17;3.13;;;2.35;;
26908;SDS011;14477;51.038;4.588;2023-09-07T02:46:43;3.25;;;2.05;;
26908;SDS011;14477;51.038;4.588;2023-09-07T02:49:09;3.20;;;2.07;;
26908;SDS011;14477;51.038;4.588;2023-09-07T02:51:35;4.28;;;2.22;;
26908;SDS011;14477;51.038;4.588;2023-09-07T02:54:01;2.70;;;2.07;;
26908;SDS011;14477;51.038;4.588;2023-09-07T02:56:28;2.95;;;2.30;;
26908;SDS011;14477;51.038;4.588;2023-09-07T02:58:54;3.30;;;2.30;;
26908;SDS011;14477;51.038;4.588;2023-09-07T03:01:19;3.70;;;2.30;;
26908;SDS011;14477;51.038;4.588;2023-09-07T03:03:46;3.70;;;2.30;;
26908;SDS011;14477;51.038;4.588;2023-09-07T03:06:13;3.20;;;2.08;;
26908;SDS011;14477;51.038;4.588;2023-09-07T03:08:40;3.38;;;2.25;;
26908;SDS011;14477;51.038;4.588;2023-09-07T03:11:06;3.00;;;2.10;;
26908;SDS011;14477;51.038;4.588;2023-09-07T03:13:32;3.67;;;2.38;;
26908;SDS011;14477;51.038;4.588;2023-09-07T03:15:58;3.80;;;2.17;;
26908;SDS011;14477;51.038;4.588;2023-09-07T03:18:24;3.75;;;2.13;;
26908;SDS011;14477;51.038;4.588;2023-09-07T03:20:53;3.35;;;2.25;;
26908;SDS011;14477;51.038;4.588;2023-09-07T03:23:20;3.37;;;2.30;;
26908;SDS011;14477;51.038;4.588;2023-09-07T03:25:46;3.83;;;2.45;;
26908;SDS011;14477;51.038;4.588;2023-09-07T03:28:12;3.45;;;2.45;;
26908;SDS011;14477;51.038;4.588;2023-09-07T03:30:38;3.67;;;2.20;;
26908;SDS011;14477;51.038;4.588;2023-09-07T03:33:04;4.38;;;2.55;;
26908;SDS011;14477;51.038;4.588;2023-09-07T03:35:30;2.90;;;2.25;;
26908;SDS011;14477;51.038;4.588;2023-09-07T03:37:56;3.43;;;2.30;;
26908;SDS011;14477;51.038;4.588;2023-09-07T03:40:22;3.78;;;2.25;;
26908;SDS011;14477;51.038;4.588;2023-09-07T03:42:49;4.03;;;2.60;;
26908;SDS011;14477;51.038;4.588;2023-09-07T03:45:15;3.45;;;2.53;;
26908;SDS011;14477;51.038;4.588;2023-09-07T03:47:41;3.00;;;2.20;;
26908;SDS011;14477;51.038;4.588;2023-09-07T03:50:07;3.22;;;2.13;;
26908;SDS011;14477;51.038;4.588;2023-09-07T03:52:33;3.22;;;2.30;;
26908;SDS011;14477;51.038;4.588;2023-09-07T03:54:59;3.83;;;2.33;;
26908;SDS011;14477;51.038;4.588;2023-09-07T03:57:25;2.78;;;2.10;;
26908;SDS011;14477;51.038;4.588;2023-09-07T03:59:52;3.33;;;2.45;;
26908;SDS011;14477;51.038;4.588;2023-09-07T04:02:20;3.47;;;2.22;;
26908;SDS011;14477;51.038;4.588;2023-09-07T04:04:53;3.80;;;2.50;;
26908;SDS011;14477;51.038;4.588;2023-09-07T04:07:20;3.17;;;2.20;;
26908;SDS011;14477;51.038;4.588;2023-09-07T04:09:46;3.85;;;2.38;;
26908;SDS011;14477;51.038;4.588;2023-09-07T04:12:12;3.25;;;2.35;;
26908;SDS011;14477;51.038;4.588;2023-09-07T04:14:38;3.50;;;2.20;;
26908;SDS011;14477;51.038;4.588;2023-09-07T04:17:04;3.27;;;2.07;;
26908;SDS011;14477;51.038;4.588;2023-09-07T04:19:30;3.05;;;2.22;;
26908;SDS011;14477;51.038;4.588;2023-09-07T04:21:59;4.20;;;2.35;;
26908;SDS011;14477;51.038;4.588;2023-09-07T04:24:25;3.55;;;2.40;;
26908;SDS011;14477;51.038;4.588;2023-09-07T04:26:52;3.30;;;2.40;;
26908;SDS011;14477;51.038;4.588;2023-09-07T04:29:18;3.58;;;2.38;;
26908;SDS011;14477;51.038;4.588;2023-09-07T04:31:44;3.47;;;2.33;;
26908;SDS011;14477;51.038;4.588;2023-09-07T04:34:10;3.67;;;2.53;;
26908;SDS011;14477;51.038;4.588;2023-09-07T04:36:36;3.72;;;2.45;;
26908;SDS011;14477;51.038;4.588;2023-09-07T04:39:01;3.80;;;2.43;;
26908;SDS011;14477;51.038;4.588;2023-09-07T04:41:28;3.65;;;2.45;;
26908;SDS011;14477;51.038;4.588;2023-09-07T04:43:54;3.78;;;2.50;;
26908;SDS011;14477;51.038;4.588;2023-09-07T04:46:23;3.70;;;2.42;;
26908;SDS011;14477;51.038;4.588;2023-09-07T04:48:49;3.50;;;2.43;;
26908;SDS011;14477;51.038;4.588;2023-09-07T04:51:15;3.75;;;2.47;;
26908;SDS011;14477;51.038;4.588;2023-09-07T04:53:41;3.90;;;2.28;;
26908;SDS011;14477;51.038;4.588;2023-09-07T04:56:07;3.80;;;2.40;;
26908;SDS011;14477;51.038;4.588;2023-09-07T04:58:33;3.55;;;2.58;;
26908;SDS011;14477;51.038;4.588;2023-09-07T05:01:03;4.25;;;2.58;;
26908;SDS011;14477;51.038;4.588;2023-09-07T05:03:34;3.28;;;2.40;;
26908;SDS011;14477;51.038;4.588;2023-09-07T05:06:00;3.90;;;2.50;;
26908;SDS011;14477;51.038;4.588;2023-09-07T05:08:28;3.23;;;2.20;;
26908;SDS011;14477;51.038;4.588;2023-09-07T05:10:58;3.42;;;2.50;;
26908;SDS011;14477;51.038;4.588;2023-09-07T05:13:25;3.65;;;2.53;;
26908;SDS011;14477;51.038;4.588;2023-09-07T05:15:52;3.63;;;2.33;;
26908;SDS011;14477;51.038;4.588;2023-09-07T05:18:19;3.85;;;2.40;;
26908;SDS011;14477;51.038;4.588;2023-09-07T05:20:46;3.53;;;2.27;;
26908;SDS011;14477;51.038;4.588;2023-09-07T05:23:18;3.30;;;2.05;;
26908;SDS011;14477;51.038;4.588;2023-09-07T05:25:45;3.20;;;2.40;;
26908;SDS011;14477;51.038;4.588;2023-09-07T05:28:15;4.28;;;2.55;;
26908;SDS011;14477;51.038;4.588;2023-09-07T05:30:42;3.95;;;2.50;;
26908;SDS011;14477;51.038;4.588;2023-09-07T05:33:12;3.37;;;2.50;;
26908;SDS011;14477;51.038;4.588;2023-09-07T05:35:39;3.22;;;2.30;;
26908;SDS011;14477;51.038;4.588;2023-09-07T05:38:05;4.35;;;2.35;;
26908;SDS011;14477;51.038;4.588;2023-09-07T05:40:35;3.60;;;2.60;;
26908;SDS011;14477;51.038;4.588;2023-09-07T05:43:02;3.97;;;2.55;;
26908;SDS011;14477;51.038;4.588;2023-09-07T05:45:29;4.03;;;2.37;;
26908;SDS011;14477;51.038;4.588;2023-09-07T05:47:56;3.65;;;2.38;;
26908;SDS011;14477;51.038;4.588;2023-09-07T05:50:22;3.83;;;2.58;;
26908;SDS011;14477;51.038;4.588;2023-09-07T05:52:48;3.75;;;2.50;;
26908;SDS011;14477;51.038;4.588;2023-09-07T05:55:14;4.00;;;2.70;;
26908;SDS011;14477;51.038;4.588;2023-09-07T05:57:40;3.00;;;2.20;;
26908;SDS011;14477;51.038;4.588;2023-09-07T06:00:06;3.77;;;2.60;;
26908;SDS011;14477;51.038;4.588;2023-09-07T06:02:32;3.83;;;2.50;;
26908;SDS011;14477;51.038;4.588;2023-09-07T06:04:58;3.40;;;2.60;;
26908;SDS011;14477;51.038;4.588;2023-09-07T06:07:24;4.17;;;2.80;;
26908;SDS011;14477;51.038;4.588;2023-09-07T06:09:49;3.78;;;2.58;;
26908;SDS011;14477;51.038;4.588;2023-09-07T06:12:15;4.10;;;2.80;;
26908;SDS011;14477;51.038;4.588;2023-09-07T06:14:41;4.15;;;2.67;;
26908;SDS011;14477;51.038;4.588;2023-09-07T06:17:07;4.70;;;2.90;;
26908;SDS011;14477;51.038;4.588;2023-09-07T06:19:32;3.53;;;2.72;;
26908;SDS011;14477;51.038;4.588;2023-09-07T06:21:59;5.05;;;3.17;;
26908;SDS011;14477;51.038;4.588;2023-09-07T06:24:25;4.33;;;2.80;;
26908;SDS011;14477;51.038;4.588;2023-09-07T06:26:50;4.18;;;3.08;;
26908;SDS011;14477;51.038;4.588;2023-09-07T06:29:16;4.40;;;2.90;;
26908;SDS011;14477;51.038;4.588;2023-09-07T06:31:42;3.92;;;3.00;;
26908;SDS011;14477;51.038;4.588;2023-09-07T06:34:08;4.13;;;2.87;;
26908;SDS011;14477;51.038;4.588;2023-09-07T06:36:33;4.30;;;2.92;;
26908;SDS011;14477;51.038;4.588;2023-09-07T06:38:59;4.33;;;2.90;;
26908;SDS011;14477;51.038;4.588;2023-09-07T06:41:25;3.90;;;2.58;;
26908;SDS011;14477;51.038;4.588;2023-09-07T06:43:51;4.03;;;2.78;;
26908;SDS011;14477;51.038;4.588;2023-09-07T06:46:17;4.00;;;2.80;;
26908;SDS011;14477;51.038;4.588;2023-09-07T06:48:43;4.38;;;3.05;;
26908;SDS011;14477;51.038;4.588;2023-09-07T06:51:09;4.17;;;2.90;;
26908;SDS011;14477;51.038;4.588;2023-09-07T06:53:34;3.80;;;2.80;;
26908;SDS011;14477;51.038;4.588;2023-09-07T06:56:01;4.93;;;2.40;;
26908;SDS011;14477;51.038;4.588;2023-09-07T06:58:28;5.30;;;2.70;;
26908;SDS011;14477;51.038;4.588;2023-09-07T07:01:00;3.63;;;2.60;;
26908;SDS011;14477;51.038;4.588;2023-09-07T07:03:28;4.10;;;2.72;;
26908;SDS011;14477;51.038;4.588;2023-09-07T07:05:55;3.67;;;2.70;;
26908;SDS011;14477;51.038;4.588;2023-09-07T07:08:22;4.80;;;2.80;;
26908;SDS011;14477;51.038;4.588;2023-09-07T07:10:48;3.70;;;2.70;;
26908;SDS011;14477;51.038;4.588;2023-09-07T07:13:14;3.70;;;2.72;;
26908;SDS011;14477;51.038;4.588;2023-09-07T07:15:41;4.30;;;2.55;;
26908;SDS011;14477;51.038;4.588;2023-09-07T07:18:07;3.78;;;2.70;;
26908;SDS011;14477;51.038;4.588;2023-09-07T07:20:39;3.87;;;2.50;;
26908;SDS011;14477;51.038;4.588;2023-09-07T07:23:07;3.40;;;2.50;;
26908;SDS011;14477;51.038;4.588;2023-09-07T07:25:33;4.43;;;2.78;;
26908;SDS011;14477;51.038;4.588;2023-09-07T07:28:03;3.75;;;2.80;;
26908;SDS011;14477;51.038;4.588;2023-09-07T07:30:35;3.00;;;2.40;;
26908;SDS011;14477;51.038;4.588;2023-09-07T07:33:03;3.75;;;2.80;;
26908;SDS011;14477;51.038;4.588;2023-09-07T07:35:33;3.58;;;2.65;;
26908;SDS011;14477;51.038;4.588;2023-09-07T07:37:59;3.60;;;2.55;;
26908;SDS011;14477;51.038;4.588;2023-09-07T07:40:28;5.07;;;2.58;;
26908;SDS011;14477;51.038;4.588;2023-09-07T07:42:55;4.10;;;2.83;;
26908;SDS011;14477;51.038;4.588;2023-09-07T07:45:20;3.70;;;2.50;;
26908;SDS011;14477;51.038;4.588;2023-09-07T07:47:50;3.40;;;2.65;;
26908;SDS011;14477;51.038;4.588;2023-09-07T07:50:16;4.75;;;2.65;;
26908;SDS011;14477;51.038;4.588;2023-09-07T07:52:43;3.73;;;2.73;;
26908;SDS011;14477;51.038;4.588;2023-09-07T07:55:10;4.13;;;2.80;;
26908;SDS011;14477;51.038;4.588;2023-09-07T07:57:36;3.47;;;2.83;;
26908;SDS011;14477;51.038;4.588;2023-09-07T08:00:02;4.22;;;2.85;;
26908;SDS011;14477;51.038;4.588;2023-09-07T08:02:29;3.97;;;3.00;;
26908;SDS011;14477;51.038;4.588;2023-09-07T08:04:56;4.38;;;2.90;;
26908;SDS011;14477;51.038;4.588;2023-09-07T08:07:22;3.70;;;2.85;;
26908;SDS011;14477;51.038;4.588;2023-09-07T08:09:48;3.55;;;2.60;;
26908;SDS011;14477;51.038;4.588;2023-09-07T08:12:16;4.20;;;2.70;;
26908;SDS011;14477;51.038;4.588;2023-09-07T08:14:42;3.58;;;2.50;;
26908;SDS011;14477;51.038;4.588;2023-09-07T08:17:08;3.90;;;2.67;;
26908;SDS011;14477;51.038;4.588;2023-09-07T08:19:34;3.03;;;2.70;;
26908;SDS011;14477;51.038;4.588;2023-09-07T08:22:00;3.22;;;2.50;;
26908;SDS011;14477;51.038;4.588;2023-09-07T08:24:29;4.33;;;2.80;;
26908;SDS011;14477;51.038;4.588;2023-09-07T08:26:56;2.90;;;2.50;;
26908;SDS011;14477;51.038;4.588;2023-09-07T08:29:25;3.40;;;2.83;;
26908;SDS011;14477;51.038;4.588;2023-09-07T08:31:55;3.40;;;2.83;;
26908;SDS011;14477;51.038;4.588;2023-09-07T08:34:21;3.65;;;2.80;;
26908;SDS011;14477;51.038;4.588;2023-09-07T08:36:47;3.10;;;2.70;;
26908;SDS011;14477;51.038;4.588;2023-09-07T08:39:15;3.33;;;2.83;;
26908;SDS011;14477;51.038;4.588;2023-09-07T08:41:42;4.18;;;2.83;;
26908;SDS011;14477;51.038;4.588;2023-09-07T08:44:09;3.03;;;2.33;;
26908;SDS011;14477;51.038;4.588;2023-09-07T08:46:39;3.15;;;2.85;;
26908;SDS011;14477;51.038;4.588;2023-09-07T08:49:06;3.57;;;2.50;;
26908;SDS011;14477;51.038;4.588;2023-09-07T08:51:32;3.58;;;2.78;;
26908;SDS011;14477;51.038;4.588;2023-09-07T08:53:58;3.88;;;3.05;;
26908;SDS011;14477;51.038;4.588;2023-09-07T08:56:24;3.08;;;2.75;;
26908;SDS011;14477;51.038;4.588;2023-09-07T08:58:50;2.83;;;2.57;;
26908;SDS011;14477;51.038;4.588;2023-09-07T09:01:16;3.03;;;2.72;;
26908;SDS011;14477;51.038;4.588;2023-09-07T09:03:43;3.13;;;2.83;;
26908;SDS011;14477;51.038;4.588;2023-09-07T09:06:10;4.10;;;3.05;;
26908;SDS011;14477;51.038;4.588;2023-09-07T09:11:16;3.10;;;2.80;;
26908;SDS011;14477;51.038;4.588;2023-09-07T09:13:43;3.55;;;3.25;;
26908;SDS011;14477;51.038;4.588;2023-09-07T09:16:09;4.28;;;3.28;;
26908;SDS011;14477;51.038;4.588;2023-09-07T09:18:35;3.40;;;3.10;;
26908;SDS011;14477;51.038;4.588;2023-09-07T09:21:02;3.33;;;3.03;;
26908;SDS011;14477;51.038;4.588;2023-09-07T09:23:33;3.43;;;3.13;;
26908;SDS011;14477;51.038;4.588;2023-09-07T09:26:01;3.25;;;2.95;;
26908;SDS011;14477;51.038;4.588;2023-09-07T09:28:30;3.50;;;3.05;;
26908;SDS011;14477;51.038;4.588;2023-09-07T09:30:57;3.58;;;3.25;;
26908;SDS011;14477;51.038;4.588;2023-09-07T09:33:24;3.75;;;3.45;;
26908;SDS011;14477;51.038;4.588;2023-09-07T09:35:51;5.13;;;2.97;;
26908;SDS011;14477;51.038;4.588;2023-09-07T09:38:18;3.05;;;2.85;;
26908;SDS011;14477;51.038;4.588;2023-09-07T09:40:45;3.25;;;2.95;;
26908;SDS011;14477;51.038;4.588;2023-09-07T09:43:10;3.35;;;3.05;;
26908;SDS011;14477;51.038;4.588;2023-09-07T09:45:37;3.38;;;3.08;;
26908;SDS011;14477;51.038;4.588;2023-09-07T09:48:03;3.40;;;3.10;;
26908;SDS011;14477;51.038;4.588;2023-09-07T09:50:31;3.42;;;3.13;;
26908;SDS011;14477;51.038;4.588;2023-09-07T09:53:03;3.30;;;3.00;;
26908;SDS011;14477;51.038;4.588;2023-09-07T09:55:31;3.83;;;3.42;;
26908;SDS011;14477;51.038;4.588;2023-09-07T09:58:00;4.30;;;3.43;;
26908;SDS011;14477;51.038;4.588;2023-09-07T10:00:26;4.20;;;3.80;;
26908;SDS011;14477;51.038;4.588;2023-09-07T10:05:36;3.72;;;3.42;;
26908;SDS011;14477;51.038;4.588;2023-09-07T10:08:07;4.00;;;3.60;;
26908;SDS011;14477;51.038;4.588;2023-09-07T10:10:41;3.80;;;3.50;;
26908;SDS011;14477;51.038;4.588;2023-09-07T10:13:08;3.83;;;3.53;;
26908;SDS011;14477;51.038;4.588;2023-09-07T10:15:34;3.17;;;2.88;;
26908;SDS011;14477;51.038;4.588;2023-09-07T10:18:14;3.37;;;3.07;;
26908;SDS011;14477;51.038;4.588;2023-09-07T10:20:48;3.97;;;3.67;;
26908;SDS011;14477;51.038;4.588;2023-09-07T10:23:23;3.38;;;2.90;;
26908;SDS011;14477;51.038;4.588;2023-09-07T10:26:24;3.75;;;2.75;;
26908;SDS011;14477;51.038;4.588;2023-09-07T10:29:00;3.83;;;3.53;;
26908;SDS011;14477;51.038;4.588;2023-09-07T10:31:29;4.37;;;3.43;;
26908;SDS011;14477;51.038;4.588;2023-09-07T10:33:55;4.07;;;3.78;;
26908;SDS011;14477;51.038;4.588;2023-09-07T10:36:21;3.83;;;3.42;;
26908;SDS011;14477;51.038;4.588;2023-09-07T10:38:49;3.53;;;3.23;;
26908;SDS011;14477;51.038;4.588;2023-09-07T10:41:18;3.58;;;3.28;;
26908;SDS011;14477;51.038;4.588;2023-09-07T10:44:02;3.85;;;3.55;;
26908;SDS011;14477;51.038;4.588;2023-09-07T10:46:27;3.63;;;3.33;;
26908;SDS011;14477;51.038;4.588;2023-09-07T10:48:53;3.37;;;3.07;;
26908;SDS011;14477;51.038;4.588;2023-09-07T10:51:21;3.83;;;3.53;;
26908;SDS011;14477;51.038;4.588;2023-09-07T10:53:48;3.47;;;3.25;;
26908;SDS011;14477;51.038;4.588;2023-09-07T10:56:14;3.70;;;3.40;;
26908;SDS011;14477;51.038;4.588;2023-09-07T10:58:40;3.00;;;2.80;;
26908;SDS011;14477;51.038;4.588;2023-09-07T11:01:09;3.90;;;3.55;;
26908;SDS011;14477;51.038;4.588;2023-09-07T11:03:36;3.67;;;3.38;;
26908;SDS011;14477;51.038;4.588;2023-09-07T11:06:07;3.90;;;3.20;;
26908;SDS011;14477;51.038;4.588;2023-09-07T11:08:35;3.43;;;3.13;;
26908;SDS011;14477;51.038;4.588;2023-09-07T11:11:02;3.45;;;3.15;;
26908;SDS011;14477;51.038;4.588;2023-09-07T11:13:28;3.65;;;3.35;;
26908;SDS011;14477;51.038;4.588;2023-09-07T11:15:55;3.78;;;3.47;;
26908;SDS011;14477;51.038;4.588;2023-09-07T11:18:22;3.78;;;3.47;;
26908;SDS011;14477;51.038;4.588;2023-09-07T11:20:49;3.47;;;3.27;;
26908;SDS011;14477;51.038;4.588;2023-09-07T11:23:16;4.10;;;3.22;;
26908;SDS011;14477;51.038;4.588;2023-09-07T11:25:43;3.78;;;3.47;;
26908;SDS011;14477;51.038;4.588;2023-09-07T11:28:09;3.28;;;3.00;;
26908;SDS011;14477;51.038;4.588;2023-09-07T11:30:48;3.55;;;3.20;;
26908;SDS011;14477;51.038;4.588;2023-09-07T11:33:18;3.20;;;3.00;;
26908;SDS011;14477;51.038;4.588;2023-09-07T11:35:44;3.47;;;3.17;;
26908;SDS011;14477;51.038;4.588;2023-09-07T11:38:12;3.70;;;3.40;;
26908;SDS011;14477;51.038;4.588;2023-09-07T11:40:39;3.90;;;3.60;;
26908;SDS011;14477;51.038;4.588;2023-09-07T11:43:07;3.90;;;3.60;;
26908;SDS011;14477;51.038;4.588;2023-09-07T11:45:33;3.97;;;3.67;;
26908;SDS011;14477;51.038;4.588;2023-09-07T11:47:59;4.00;;;3.70;;
26908;SDS011;14477;51.038;4.588;2023-09-07T11:50:25;3.67;;;3.10;;
26908;SDS011;14477;51.038;4.588;2023-09-07T11:52:51;3.53;;;3.33;;
26908;SDS011;14477;51.038;4.588;2023-09-07T11:55:17;3.70;;;3.40;;
26908;SDS011;14477;51.038;4.588;2023-09-07T11:57:42;3.45;;;3.15;;
26908;SDS011;14477;51.038;4.588;2023-09-07T12:00:09;3.80;;;3.50;;
26908;SDS011;14477;51.038;4.588;2023-09-07T12:02:36;4.20;;;3.80;;
26908;SDS011;14477;51.038;4.588;2023-09-07T12:05:03;3.92;;;3.63;;
26908;SDS011;14477;51.038;4.588;2023-09-07T12:07:29;3.53;;;3.25;;
26908;SDS011;14477;51.038;4.588;2023-09-07T12:09:55;4.00;;;3.70;;
26908;SDS011;14477;51.038;4.588;2023-09-07T12:12:22;3.73;;;3.43;;
26908;SDS011;14477;51.038;4.588;2023-09-07T12:14:48;5.47;;;3.80;;
26908;SDS011;14477;51.038;4.588;2023-09-07T12:17:14;3.80;;;3.50;;
26908;SDS011;14477;51.038;4.588;2023-09-07T12:19:40;3.93;;;3.30;;
26908;SDS011;14477;51.038;4.588;2023-09-07T12:22:11;3.78;;;3.47;;
26908;SDS011;14477;51.038;4.588;2023-09-07T12:24:37;4.10;;;3.80;;
26908;SDS011;14477;51.038;4.588;2023-09-07T12:27:02;3.23;;;3.03;;
26908;SDS011;14477;51.038;4.588;2023-09-07T12:29:29;3.63;;;3.33;;
26908;SDS011;14477;51.038;4.588;2023-09-07T12:31:55;3.97;;;3.60;;
26908;SDS011;14477;51.038;4.588;2023-09-07T12:34:20;3.60;;;3.30;;
26908;SDS011;14477;51.038;4.588;2023-09-07T12:36:46;3.25;;;3.00;;
26908;SDS011;14477;51.038;4.588;2023-09-07T12:39:13;3.40;;;3.15;;
26908;SDS011;14477;51.038;4.588;2023-09-07T12:41:39;3.88;;;3.38;;
26908;SDS011;14477;51.038;4.588;2023-09-07T12:44:05;3.87;;;3.57;;
26908;SDS011;14477;51.038;4.588;2023-09-07T12:46:31;3.80;;;3.50;;
26908;SDS011;14477;51.038;4.588;2023-09-07T12:48:57;3.40;;;3.10;;
26908;SDS011;14477;51.038;4.588;2023-09-07T12:51:23;3.60;;;3.30;;
26908;SDS011;14477;51.038;4.588;2023-09-07T12:53:49;3.67;;;3.38;;
26908;SDS011;14477;51.038;4.588;2023-09-07T12:56:15;3.60;;;3.30;;
26908;SDS011;14477;51.038;4.588;2023-09-07T12:58:43;3.55;;;3.30;;
26908;SDS011;14477;51.038;4.588;2023-09-07T13:01:08;3.33;;;3.03;;
26908;SDS011;14477;51.038;4.588;2023-09-07T13:03:38;3.35;;;3.15;;
26908;SDS011;14477;51.038;4.588;2023-09-07T13:06:04;4.37;;;3.03;;
26908;SDS011;14477;51.038;4.588;2023-09-07T13:08:29;3.15;;;2.90;;
26908;SDS011;14477;51.038;4.588;2023-09-07T13:10:56;2.88;;;2.65;;
26908;SDS011;14477;51.038;4.588;2023-09-07T13:13:22;3.25;;;2.95;;
26908;SDS011;14477;51.038;4.588;2023-09-07T13:15:51;3.30;;;3.00;;
26908;SDS011;14477;51.038;4.588;2023-09-07T13:18:17;3.42;;;3.13;;
26908;SDS011;14477;51.038;4.588;2023-09-07T13:20:42;3.60;;;3.30;;
26908;SDS011;14477;51.038;4.588;2023-09-07T13:23:08;3.23;;;2.93;;
26908;SDS011;14477;51.038;4.588;2023-09-07T13:25:34;3.20;;;2.92;;
26908;SDS011;14477;51.038;4.588;2023-09-07T13:28:00;3.50;;;2.50;;
26908;SDS011;14477;51.038;4.588;2023-09-07T13:30:26;2.85;;;2.65;;
26908;SDS011;14477;51.038;4.588;2023-09-07T13:32:51;3.60;;;3.13;;
26908;SDS011;14477;51.038;4.588;2023-09-07T13:35:18;3.37;;;3.07;;
26908;SDS011;14477;51.038;4.588;2023-09-07T13:37:43;3.40;;;3.10;;
26908;SDS011;14477;51.038;4.588;2023-09-07T13:43:24;2.78;;;2.45;;
26908;SDS011;14477;51.038;4.588;2023-09-07T13:45:50;3.20;;;2.78;;
26908;SDS011;14477;51.038;4.588;2023-09-07T13:48:16;2.90;;;2.60;;
26908;SDS011;14477;51.038;4.588;2023-09-07T13:50:42;2.80;;;2.60;;
26908;SDS011;14477;51.038;4.588;2023-09-07T13:53:08;2.80;;;2.58;;
26908;SDS011;14477;51.038;4.588;2023-09-07T13:55:34;2.43;;;2.23;;
26908;SDS011;14477;51.038;4.588;2023-09-07T13:58:00;2.85;;;2.55;;
26908;SDS011;14477;51.038;4.588;2023-09-07T14:00:26;3.25;;;2.50;;
26908;SDS011;14477;51.038;4.588;2023-09-07T14:02:51;3.63;;;2.60;;
26908;SDS011;14477;51.038;4.588;2023-09-07T14:05:18;3.22;;;2.67;;
26908;SDS011;14477;51.038;4.588;2023-09-07T14:07:43;3.13;;;2.83;;
26908;SDS011;14477;51.038;4.588;2023-09-07T14:10:09;4.30;;;2.60;;
26908;SDS011;14477;51.038;4.588;2023-09-07T14:12:35;3.38;;;2.00;;
26908;SDS011;14477;51.038;4.588;2023-09-07T14:15:01;2.72;;;2.42;;
26908;SDS011;14477;51.038;4.588;2023-09-07T14:17:27;2.30;;;2.10;;
26908;SDS011;14477;51.038;4.588;2023-09-07T14:19:52;3.78;;;2.70;;
26908;SDS011;14477;51.038;4.588;2023-09-07T14:22:18;2.60;;;2.33;;
26908;SDS011;14477;51.038;4.588;2023-09-07T14:24:44;3.05;;;2.67;;
26908;SDS011;14477;51.038;4.588;2023-09-07T14:27:10;2.80;;;2.30;;
26908;SDS011;14477;51.038;4.588;2023-09-07T14:29:35;3.15;;;2.17;;
26908;SDS011;14477;51.038;4.588;2023-09-07T14:32:02;3.57;;;2.27;;
26908;SDS011;14477;51.038;4.588;2023-09-07T14:34:29;2.40;;;2.00;;
26908;SDS011;14477;51.038;4.588;2023-09-07T14:36:55;2.53;;;2.33;;
26908;SDS011;14477;51.038;4.588;2023-09-07T14:39:21;2.10;;;1.90;;
26908;SDS011;14477;51.038;4.588;2023-09-07T14:41:49;2.17;;;1.98;;
26908;SDS011;14477;51.038;4.588;2023-09-07T14:44:17;2.60;;;2.40;;
26908;SDS011;14477;51.038;4.588;2023-09-07T14:46:43;2.70;;;2.15;;
26908;SDS011;14477;51.038;4.588;2023-09-07T14:49:09;2.92;;;2.20;;
26908;SDS011;14477;51.038;4.588;2023-09-07T14:51:35;3.83;;;2.30;;
26908;SDS011;14477;51.038;4.588;2023-09-07T14:54:01;2.53;;;2.33;;